createdAt,value
2023-04-22T00:01:09.573Z,6.10
2023-04-22T00:03:38.896Z,5.60
2023-04-22T00:06:06.826Z,5.30
2023-04-22T00:08:34.204Z,6.72
2023-04-22T00:11:01.749Z,4.97
2023-04-22T00:13:29.236Z,4.93
2023-04-22T00:15:56.770Z,5.20
2023-04-22T00:18:24.196Z,5.05
2023-04-22T00:20:51.654Z,4.85
2023-04-22T00:23:19.226Z,5.72
2023-04-22T00:25:46.791Z,5.60
2023-04-22T00:28:14.269Z,5.30
2023-04-22T00:30:41.899Z,5.32
2023-04-22T00:33:09.921Z,5.70
2023-04-22T00:35:37.400Z,6.22
2023-04-22T00:38:04.934Z,6.20
2023-04-22T00:40:32.496Z,6.57
2023-04-22T00:43:00.897Z,6.90
2023-04-22T00:45:28.335Z,6.40
2023-04-22T00:47:56.300Z,6.43
2023-04-22T00:50:23.920Z,6.30
2023-04-22T00:52:51.418Z,6.47
2023-04-22T00:55:19.074Z,7.25
2023-04-22T00:57:47.051Z,6.35
2023-04-22T01:00:14.945Z,6.40
2023-04-22T01:02:42.764Z,6.53
2023-04-22T01:05:10.603Z,7.00
2023-04-22T01:07:38.128Z,6.63
2023-04-22T01:10:06.271Z,7.22
2023-04-22T01:12:34.025Z,7.10
2023-04-22T01:15:04.325Z,7.00
2023-04-22T01:17:33.887Z,7.60
2023-04-22T01:20:01.752Z,6.70
2023-04-22T01:22:33.650Z,7.07
2023-04-22T01:25:01.253Z,6.93
2023-04-22T01:27:28.780Z,6.95
2023-04-22T01:29:56.381Z,7.20
2023-04-22T01:32:24.025Z,8.07
2023-04-22T01:34:52.715Z,7.50
2023-04-22T01:37:20.275Z,7.40
2023-04-22T01:39:48.437Z,7.60
2023-04-22T01:42:15.941Z,7.20
2023-04-22T01:44:43.373Z,7.47
2023-04-22T01:47:11.028Z,7.45
2023-04-22T01:49:38.709Z,8.20
2023-04-22T01:52:06.344Z,8.18
2023-04-22T01:54:34.108Z,7.70
2023-04-22T01:57:02.144Z,8.10
2023-04-22T01:59:29.671Z,7.40
2023-04-22T02:01:57.195Z,7.75
2023-04-22T02:04:25.015Z,8.15
2023-04-22T02:06:52.505Z,8.20
2023-04-22T02:09:19.974Z,7.93
2023-04-22T02:11:47.367Z,7.65
2023-04-22T02:14:14.787Z,8.48
2023-04-22T02:16:42.519Z,8.73
2023-04-22T02:19:10.394Z,8.35
2023-04-22T02:21:37.919Z,8.98
2023-04-22T02:24:05.847Z,7.97
2023-04-22T02:26:33.282Z,7.82
2023-04-22T02:29:01.867Z,7.97
2023-04-22T02:31:29.654Z,7.93
2023-04-22T02:33:57.722Z,7.55
2023-04-22T02:36:25.713Z,7.82
2023-04-22T02:38:53.161Z,7.13
2023-04-22T02:41:20.809Z,7.00
2023-04-22T02:43:48.287Z,6.25
2023-04-22T02:46:16.666Z,7.05
2023-04-22T02:48:44.295Z,6.50
2023-04-22T02:51:11.885Z,6.47
2023-04-22T02:53:39.337Z,6.53
2023-04-22T02:56:07.034Z,6.32
2023-04-22T02:58:34.413Z,6.97
2023-04-22T03:01:02.055Z,6.88
2023-04-22T03:03:29.660Z,6.50
2023-04-22T03:05:57.430Z,6.93
2023-04-22T03:08:24.851Z,6.72
2023-04-22T03:10:52.238Z,6.97
2023-04-22T03:13:19.709Z,7.13
2023-04-22T03:15:47.510Z,6.82
2023-04-22T03:18:14.992Z,7.35
2023-04-22T03:20:43.864Z,6.75
2023-04-22T03:23:11.275Z,6.90
2023-04-22T03:25:39.041Z,6.80
2023-04-22T03:28:06.712Z,7.07
2023-04-22T03:30:35.066Z,8.35
2023-04-22T03:33:02.611Z,8.05
2023-04-22T03:35:55.020Z,8.52
2023-04-22T03:38:22.876Z,7.25
2023-04-22T03:40:51.847Z,7.75
2023-04-22T03:43:30.214Z,7.97
2023-04-22T03:46:03.813Z,7.72
2023-04-22T03:48:35.778Z,7.80
2023-04-22T03:51:08.534Z,8.38
2023-04-22T03:53:38.108Z,8.55
2023-04-22T03:56:06.732Z,8.23
2023-04-22T03:58:37.854Z,8.63
2023-04-22T04:01:08.114Z,8.80
2023-04-22T04:03:36.490Z,8.25
2023-04-22T04:06:04.609Z,8.60
2023-04-22T04:08:33.608Z,8.07
2023-04-22T04:11:01.447Z,7.75
2023-04-22T04:13:32.342Z,8.23
2023-04-22T04:16:18.635Z,9.40
2023-04-22T04:18:52.084Z,9.50
2023-04-22T04:21:22.282Z,8.18
2023-04-22T04:23:52.454Z,8.98
2023-04-22T04:26:27.505Z,8.68
2023-04-22T04:29:02.118Z,8.15
2023-04-22T04:31:29.833Z,7.78
2023-04-22T04:33:59.750Z,8.80
2023-04-22T04:36:29.470Z,8.65
2023-04-22T04:39:06.798Z,9.52
2023-04-22T04:41:34.579Z,9.73
2023-04-22T04:44:04.047Z,9.65
2023-04-22T04:46:37.793Z,10.25
2023-04-22T04:49:09.498Z,10.00
2023-04-22T04:51:46.202Z,9.93
2023-04-22T04:54:13.942Z,10.02
2023-04-22T04:56:42.552Z,9.65
2023-04-22T04:59:11.137Z,9.60
2023-04-22T05:01:40.052Z,10.00
2023-04-22T05:04:09.862Z,10.10
2023-04-22T05:06:40.737Z,10.50
2023-04-22T05:09:08.352Z,10.88
2023-04-22T05:11:37.049Z,11.40
2023-04-22T05:14:11.872Z,10.70
2023-04-22T05:16:42.218Z,10.07
2023-04-22T05:19:10.904Z,9.88
2023-04-22T05:21:38.734Z,10.13
2023-04-22T05:24:06.373Z,10.00
2023-04-22T05:26:34.228Z,10.25
2023-04-22T05:29:06.954Z,10.60
2023-04-22T05:31:34.527Z,10.27
2023-04-22T05:34:02.249Z,10.32
2023-04-22T05:36:31.595Z,9.93
2023-04-22T05:39:00.010Z,9.50
2023-04-22T05:41:28.251Z,10.48
2023-04-22T05:43:57.798Z,10.98
2023-04-22T05:46:25.817Z,9.80
2023-04-22T05:48:54.876Z,9.48
2023-04-22T05:51:40.978Z,10.88
2023-04-22T05:54:12.755Z,11.30
2023-04-22T05:56:41.251Z,9.95
2023-04-22T05:59:08.718Z,10.95
2023-04-22T06:01:37.333Z,10.38
2023-04-22T06:04:10.263Z,9.90
2023-04-22T06:06:38.350Z,8.90
2023-04-22T06:09:07.266Z,10.15
2023-04-22T06:11:34.765Z,9.57
2023-04-22T06:14:02.244Z,10.82
2023-04-22T06:16:30.909Z,13.60
2023-04-22T06:18:58.412Z,11.60
2023-04-22T06:21:26.808Z,9.65
2023-04-22T06:23:54.211Z,9.68
2023-04-22T06:26:22.359Z,9.52
2023-04-22T06:28:50.053Z,9.25
2023-04-22T06:31:21.255Z,10.00
2023-04-22T06:33:49.329Z,8.85
2023-04-22T06:36:17.068Z,9.10
2023-04-22T06:38:48.884Z,8.95
2023-04-22T06:41:29.348Z,8.98
2023-04-22T06:44:01.206Z,9.27
2023-04-22T06:46:47.112Z,9.10
2023-04-22T06:49:33.212Z,9.50
2023-04-22T06:52:15.981Z,9.18
2023-04-22T06:54:43.506Z,9.80
2023-04-22T06:57:10.966Z,9.23
2023-04-22T06:59:38.871Z,9.20
2023-04-22T07:02:08.035Z,9.13
2023-04-22T07:04:38.459Z,8.38
2023-04-22T07:07:06.751Z,7.85
2023-04-22T07:09:36.125Z,7.43
2023-04-22T07:12:04.227Z,8.10
2023-04-22T07:14:32.350Z,7.55
2023-04-22T07:17:00.034Z,8.10
2023-04-22T07:19:27.672Z,7.13
2023-04-22T07:21:55.093Z,7.07
2023-04-22T07:24:23.626Z,6.15
2023-04-22T07:26:51.244Z,6.57
2023-04-22T07:29:18.922Z,6.60
2023-04-22T07:31:46.549Z,7.55
2023-04-22T07:34:14.492Z,6.22
2023-04-22T07:36:42.137Z,12.13
2023-04-22T07:39:09.843Z,9.23
2023-04-22T07:41:37.243Z,6.82
2023-04-22T07:44:04.747Z,6.05
2023-04-22T07:46:32.389Z,6.15
2023-04-22T07:48:59.946Z,5.82
2023-04-22T07:51:27.379Z,5.22
2023-04-22T07:53:54.896Z,5.63
2023-04-22T07:56:22.880Z,5.90
2023-04-22T07:58:50.449Z,5.78
2023-04-22T08:01:19.991Z,5.20
2023-04-22T08:03:47.901Z,5.50
2023-04-22T08:06:15.608Z,5.40
2023-04-22T08:08:43.260Z,5.60
2023-04-22T08:11:10.700Z,5.72
2023-04-22T08:13:38.185Z,5.35
2023-04-22T08:16:07.444Z,5.30
2023-04-22T08:18:35.194Z,5.95
2023-04-22T08:21:03.129Z,5.15
2023-04-22T08:23:30.711Z,5.60
2023-04-22T08:25:58.432Z,4.90
2023-04-22T08:28:26.323Z,4.15
2023-04-22T08:30:53.776Z,4.32
2023-04-22T08:33:22.527Z,4.25
2023-04-22T08:35:50.160Z,4.65
2023-04-22T08:38:17.612Z,4.40
2023-04-22T08:40:45.059Z,4.30
2023-04-22T08:43:12.681Z,4.00
2023-04-22T08:45:40.784Z,4.22
2023-04-22T08:48:11.551Z,4.88
2023-04-22T08:50:42.184Z,4.82
2023-04-22T08:53:10.346Z,4.68
2023-04-22T08:55:38.152Z,4.50
2023-04-22T08:58:06.257Z,4.68
2023-04-22T09:00:35.552Z,5.32
2023-04-22T09:03:03.819Z,5.22
2023-04-22T09:05:34.028Z,4.65
2023-04-22T09:08:01.905Z,4.63
2023-04-22T09:10:31.387Z,4.65
2023-04-22T09:12:59.957Z,8.70
2023-04-22T09:15:27.865Z,4.80
2023-04-22T09:17:55.557Z,5.22
2023-04-22T09:20:27.046Z,5.25
2023-04-22T09:22:54.992Z,4.88
2023-04-22T09:25:26.883Z,4.60
2023-04-22T09:27:55.366Z,4.00
2023-04-22T09:30:30.349Z,4.00
2023-04-22T09:32:59.056Z,4.90
2023-04-22T09:35:33.240Z,4.60
2023-04-22T09:38:01.883Z,5.40
2023-04-22T09:40:29.891Z,5.07
2023-04-22T09:42:58.628Z,5.28
2023-04-22T09:45:33.337Z,5.80
2023-04-22T09:50:29.630Z,6.70
2023-04-22T09:52:58.108Z,4.60
2023-04-22T09:55:26.422Z,4.28
2023-04-22T09:57:55.444Z,3.80
2023-04-22T10:00:24.608Z,4.28
2023-04-22T10:02:52.210Z,4.43
2023-04-22T10:05:19.797Z,5.63
2023-04-22T10:07:47.405Z,4.25
2023-04-22T10:10:15.043Z,4.13
2023-04-22T10:12:42.490Z,4.47
2023-04-22T10:15:10.063Z,5.47
2023-04-22T10:17:38.946Z,5.57
2023-04-22T10:20:14.705Z,4.50
2023-04-22T10:22:43.361Z,4.57
2023-04-22T10:25:25.392Z,3.90
2023-04-22T10:27:55.841Z,7.00
2023-04-22T10:30:33.435Z,5.32
2023-04-22T10:33:20.148Z,7.57
2023-04-22T10:36:08.131Z,4.60
2023-04-22T10:38:39.504Z,5.45
2023-04-22T10:41:07.338Z,6.75
2023-04-22T10:43:48.230Z,5.05
2023-04-22T10:46:37.745Z,3.53
2023-04-22T10:49:13.086Z,3.80
2023-04-22T10:51:41.272Z,4.07
2023-04-22T10:54:09.059Z,3.70
2023-04-22T10:56:58.207Z,4.22
2023-04-22T10:59:26.461Z,3.80
2023-04-22T11:01:53.994Z,3.65
2023-04-22T11:04:23.361Z,3.63
2023-04-22T11:07:09.521Z,3.42
2023-04-22T11:09:40.928Z,3.83
2023-04-22T11:12:27.303Z,3.58
2023-04-22T11:14:54.824Z,3.90
2023-04-22T11:17:22.426Z,3.63
2023-04-22T11:19:56.084Z,3.53
2023-04-22T11:22:24.822Z,3.38
2023-04-22T11:24:56.067Z,3.60
2023-04-22T11:27:26.786Z,4.25
2023-04-22T11:30:10.051Z,4.05
2023-04-22T11:32:38.564Z,4.13
2023-04-22T11:35:09.662Z,4.78
2023-04-22T11:37:41.239Z,4.85
2023-04-22T11:40:28.087Z,4.00
2023-04-22T11:42:58.547Z,3.47
2023-04-22T11:45:26.282Z,3.60
2023-04-22T11:47:54.370Z,3.35
2023-04-22T11:50:23.357Z,4.43
2023-04-22T11:52:52.804Z,3.92
2023-04-22T11:55:27.955Z,3.80
2023-04-22T11:58:10.774Z,4.10
2023-04-22T12:00:42.723Z,3.83
2023-04-22T12:03:15.628Z,3.55
2023-04-22T12:05:47.919Z,4.03
2023-04-22T12:08:16.890Z,4.28
2023-04-22T12:10:47.522Z,4.25
2023-04-22T12:13:22.135Z,6.60
2023-04-22T12:18:17.087Z,3.30
2023-04-22T12:20:44.678Z,3.40
2023-04-22T12:23:15.966Z,3.80
2023-04-22T12:25:44.144Z,4.10
2023-04-22T12:28:12.089Z,3.83
2023-04-22T12:30:39.803Z,3.67
2023-04-22T12:33:11.721Z,3.42
2023-04-22T12:35:42.388Z,3.42
2023-04-22T12:38:10.205Z,3.72
2023-04-22T12:40:37.605Z,4.05
2023-04-22T12:43:08.699Z,3.45
2023-04-22T12:45:36.951Z,4.13
2023-04-22T12:48:04.724Z,3.85
2023-04-22T12:50:32.150Z,4.25
2023-04-22T12:52:59.605Z,3.95
2023-04-22T12:55:27.378Z,3.47
2023-04-22T12:58:31.906Z,3.42
2023-04-22T13:00:59.381Z,3.60
2023-04-22T13:03:27.096Z,4.10
2023-04-22T13:05:57.593Z,5.45
2023-04-22T13:08:25.456Z,4.30
2023-04-22T13:10:53.655Z,4.28
2023-04-22T13:13:21.130Z,4.10
2023-04-22T13:15:54.195Z,5.88
2023-04-22T13:18:23.268Z,3.47
2023-04-22T13:20:51.324Z,3.70
2023-04-22T13:23:21.634Z,4.10
2023-04-22T13:25:53.677Z,3.80
2023-04-22T13:28:21.175Z,3.67
2023-04-22T13:30:48.700Z,4.03
2023-04-22T13:33:18.306Z,3.45
2023-04-22T13:35:48.346Z,5.07
2023-04-22T13:38:15.926Z,3.65
2023-04-22T13:40:43.418Z,3.83
2023-04-22T13:43:11.080Z,4.38
2023-04-22T13:45:38.949Z,4.15
2023-04-22T13:48:06.663Z,4.35
2023-04-22T13:50:34.346Z,4.15
2023-04-22T13:53:03.927Z,4.47
2023-04-22T13:55:31.556Z,4.07
2023-04-22T13:57:59.083Z,4.05
2023-04-22T14:00:27.040Z,4.60
2023-04-22T14:02:57.352Z,4.05
2023-04-22T14:05:31.121Z,3.53
2023-04-22T14:08:01.138Z,5.10
2023-04-22T14:10:28.943Z,5.68
2023-04-22T14:12:56.363Z,4.53
2023-04-22T14:15:24.838Z,4.80
2023-04-22T14:17:52.321Z,3.70
2023-04-22T14:20:19.820Z,4.38
2023-04-22T14:22:47.333Z,4.43
2023-04-22T14:25:14.902Z,3.95
2023-04-22T14:27:47.983Z,4.07
2023-04-22T14:30:24.184Z,3.70
2023-04-22T14:32:51.626Z,3.35
2023-04-22T14:35:19.193Z,3.80
2023-04-22T14:37:46.755Z,3.80
2023-04-22T14:40:14.446Z,3.70
2023-04-22T14:42:42.116Z,3.78
2023-04-22T14:45:09.842Z,3.88
2023-04-22T14:47:37.347Z,3.50
2023-04-22T14:50:07.298Z,4.63
2023-04-22T14:52:34.946Z,4.38
2023-04-22T14:55:15.429Z,3.90
2023-04-22T14:57:47.809Z,4.15
2023-04-22T15:00:15.525Z,3.80
2023-04-22T15:02:43.256Z,3.33
2023-04-22T15:05:10.970Z,3.75
2023-04-22T15:07:39.228Z,3.58
2023-04-22T15:10:06.969Z,3.40
2023-04-22T15:12:34.453Z,4.03
2023-04-22T15:15:01.860Z,3.55
2023-04-22T15:17:30.817Z,4.50
2023-04-22T15:19:58.330Z,4.38
2023-04-22T15:22:25.951Z,4.65
2023-04-22T15:24:53.413Z,4.95
2023-04-22T15:27:20.976Z,5.18
2023-04-22T15:29:48.488Z,5.03
2023-04-22T15:32:16.067Z,6.20
2023-04-22T15:34:43.532Z,5.78
2023-04-22T15:37:12.406Z,5.70
2023-04-22T15:39:41.248Z,5.25
2023-04-22T15:42:09.031Z,5.90
2023-04-22T15:44:36.503Z,5.20
2023-04-22T15:47:04.690Z,6.10
2023-04-22T15:49:32.534Z,7.18
2023-04-22T15:52:01.107Z,6.28
2023-04-22T15:54:28.557Z,6.65
2023-04-22T15:57:00.820Z,5.82
2023-04-22T15:59:28.411Z,6.50
2023-04-22T16:01:56.150Z,6.13
2023-04-22T16:04:23.884Z,6.68
2023-04-22T16:06:51.812Z,5.80
2023-04-22T16:09:19.349Z,7.57
2023-04-22T16:11:46.869Z,6.55
2023-04-22T16:14:14.780Z,6.95
2023-04-22T16:16:42.848Z,6.20
2023-04-22T16:19:13.188Z,6.50
2023-04-22T16:21:40.877Z,6.55
2023-04-22T16:24:08.292Z,8.35
2023-04-22T16:26:35.933Z,8.00
2023-04-22T16:29:03.408Z,7.03
2023-04-22T16:31:30.883Z,5.97
2023-04-22T16:33:59.133Z,5.80
2023-04-22T16:36:26.851Z,6.03
2023-04-22T16:38:54.248Z,6.05
2023-04-22T16:41:21.822Z,5.78
2023-04-22T16:43:49.212Z,5.25
2023-04-22T16:46:16.770Z,5.30
2023-04-22T16:48:44.456Z,5.30
2023-04-22T16:51:12.199Z,4.90
2023-04-22T16:53:39.721Z,4.82
2023-04-22T16:56:07.252Z,5.10
2023-04-22T16:58:34.637Z,4.75
2023-04-22T17:01:02.160Z,4.75
2023-04-22T17:03:29.700Z,4.60
2023-04-22T17:06:00.599Z,4.97
2023-04-22T17:08:31.539Z,5.85
2023-04-22T17:10:59.426Z,5.05
2023-04-22T17:13:26.831Z,5.32
2023-04-22T17:15:54.316Z,4.68
2023-04-22T17:18:21.843Z,5.25
2023-04-22T17:20:49.280Z,5.22
2023-04-22T17:23:18.025Z,5.90
2023-04-22T17:25:46.997Z,5.47
2023-04-22T17:28:14.457Z,5.45
2023-04-22T17:30:41.825Z,5.97
2023-04-22T17:33:09.235Z,5.93
2023-04-22T17:35:36.737Z,6.35
2023-04-22T17:38:04.116Z,5.93
2023-04-22T17:40:31.946Z,6.07
2023-04-22T17:42:59.408Z,6.43
2023-04-22T17:45:27.037Z,6.05
2023-04-22T17:47:54.539Z,6.97
2023-04-22T17:50:23.330Z,6.57
2023-04-22T17:52:50.914Z,6.63
2023-04-22T17:55:18.375Z,6.57
2023-04-22T17:57:45.863Z,6.90
2023-04-22T18:00:18.038Z,7.00
2023-04-22T18:02:45.621Z,7.63
2023-04-22T18:05:13.284Z,7.60
2023-04-22T18:07:40.843Z,6.45
2023-04-22T18:10:08.704Z,6.30
2023-04-22T18:12:36.247Z,6.00
2023-04-22T18:15:07.783Z,6.85
2023-04-22T18:17:35.318Z,6.93
2023-04-22T18:20:16.574Z,6.30
2023-04-22T18:22:45.376Z,7.05
2023-04-22T18:25:12.795Z,8.52
2023-04-22T18:27:40.702Z,7.38
2023-04-22T18:30:08.398Z,8.48
2023-04-22T18:32:39.098Z,7.10
2023-04-22T18:35:07.280Z,6.88
2023-04-22T18:37:37.990Z,6.43
2023-04-22T18:40:06.306Z,6.63
2023-04-22T18:42:34.100Z,6.00
2023-04-22T18:45:04.911Z,6.82
2023-04-22T18:47:32.917Z,6.38
2023-04-22T18:50:00.723Z,6.53
2023-04-22T18:52:28.497Z,5.93
2023-04-22T18:54:56.236Z,5.55
2023-04-22T18:57:23.794Z,6.90
2023-04-22T18:59:51.389Z,5.95
2023-04-22T19:02:18.963Z,5.90
2023-04-22T19:04:46.631Z,6.18
2023-04-22T19:07:14.120Z,6.63
2023-04-22T19:09:44.582Z,7.28
2023-04-22T19:12:14.810Z,7.47
2023-04-22T19:14:43.283Z,6.72
2023-04-22T19:17:11.060Z,7.78
2023-04-22T19:19:38.914Z,6.78
2023-04-22T19:22:08.645Z,7.15
2023-04-22T19:24:36.558Z,6.00
2023-04-22T19:27:07.062Z,7.30
2023-04-22T19:29:34.612Z,5.93
2023-04-22T19:32:05.074Z,6.30
2023-04-22T19:34:33.151Z,5.93
2023-04-22T19:37:02.942Z,6.30
2023-04-22T19:39:33.102Z,6.30
2023-04-22T19:42:03.597Z,6.20
2023-04-22T19:44:31.151Z,6.45
2023-04-22T19:46:58.750Z,6.82
2023-04-22T19:49:26.994Z,5.75
2023-04-22T19:51:54.408Z,7.05
2023-04-22T19:54:23.164Z,6.25
2023-04-22T19:57:07.242Z,6.95
2023-04-22T19:59:35.514Z,6.97
2023-04-22T20:02:04.012Z,8.55
2023-04-22T20:04:32.580Z,9.52
2023-04-22T20:07:02.937Z,9.93
2023-04-22T20:09:33.032Z,7.53
2023-04-22T20:12:01.276Z,10.13
2023-04-22T20:14:30.550Z,7.40
2023-04-22T20:16:58.100Z,6.47
2023-04-22T20:19:27.488Z,6.63
2023-04-22T20:21:56.738Z,6.60
2023-04-22T20:24:24.779Z,6.68
2023-04-22T20:26:52.371Z,7.32
2023-04-22T20:29:19.839Z,9.98
2023-04-22T20:31:47.360Z,8.85
2023-04-22T20:34:15.166Z,7.72
2023-04-22T20:36:43.267Z,7.07
2023-04-22T20:39:14.245Z,7.47
2023-04-22T20:41:42.011Z,6.88
2023-04-22T20:44:09.479Z,6.78
2023-04-22T20:46:37.582Z,7.15
2023-04-22T20:49:05.017Z,7.32
2023-04-22T20:51:32.608Z,7.18
2023-04-22T20:54:00.159Z,7.88
2023-04-22T20:56:28.236Z,7.35
2023-04-22T20:58:55.733Z,6.47
2023-04-22T21:01:23.190Z,6.72
2023-04-22T21:03:52.978Z,6.75
2023-04-22T21:06:21.201Z,6.85
2023-04-22T21:08:49.705Z,6.70
2023-04-22T21:11:17.555Z,7.28
2023-04-22T21:13:45.184Z,6.53
2023-04-22T21:16:13.958Z,6.55
2023-04-22T21:18:43.682Z,6.47
2023-04-22T21:21:12.334Z,6.85
2023-04-22T21:23:41.566Z,6.90
2023-04-22T21:26:09.756Z,6.75
2023-04-22T21:28:37.642Z,6.55
2023-04-22T21:31:05.245Z,7.13
2023-04-22T21:33:33.143Z,7.13
2023-04-22T21:36:00.767Z,7.13
2023-04-22T21:38:28.386Z,6.95
2023-04-22T21:40:55.824Z,7.88
2023-04-22T21:43:23.457Z,10.00
2023-04-22T21:45:51.236Z,7.70
2023-04-22T21:48:18.661Z,7.00
2023-04-22T21:50:46.144Z,7.90
2023-04-22T21:53:13.635Z,7.50
2023-04-22T21:55:41.116Z,7.32
2023-04-22T21:58:08.766Z,8.35
2023-04-22T22:00:37.700Z,8.05
2023-04-22T22:03:06.299Z,8.80
2023-04-22T22:05:34.161Z,7.97
2023-04-22T22:08:01.879Z,8.40
2023-04-22T22:10:29.373Z,7.75
2023-04-22T22:12:56.851Z,7.63
2023-04-22T22:15:24.388Z,7.32
2023-04-22T22:17:52.361Z,8.18
2023-04-22T22:20:22.725Z,7.85
2023-04-22T22:22:50.174Z,7.80
2023-04-22T22:25:17.782Z,7.90
2023-04-22T22:27:46.865Z,7.40
2023-04-22T22:30:14.618Z,7.78
2023-04-22T22:32:42.146Z,8.20
2023-04-22T22:35:09.971Z,8.38
2023-04-22T22:37:37.768Z,7.85
2023-04-22T22:40:05.966Z,9.55
2023-04-22T22:42:33.453Z,8.38
2023-04-22T22:45:01.124Z,8.50
2023-04-22T22:47:28.602Z,8.27
2023-04-22T22:49:56.108Z,8.10
2023-04-22T22:52:23.547Z,8.93
2023-04-22T22:54:51.048Z,8.30
2023-04-22T22:57:18.583Z,8.57
2023-04-22T22:59:46.658Z,9.18
2023-04-22T23:02:14.384Z,8.77
2023-04-22T23:04:42.220Z,8.43
2023-04-22T23:07:10.005Z,8.80
2023-04-22T23:09:37.403Z,9.15
2023-04-22T23:12:05.398Z,8.70
2023-04-22T23:14:33.462Z,8.93
2023-04-22T23:17:00.901Z,9.80
2023-04-22T23:19:29.305Z,9.75
2023-04-22T23:21:56.986Z,9.45
2023-04-22T23:24:24.500Z,10.07
2023-04-22T23:26:52.078Z,10.02
2023-04-22T23:29:19.672Z,9.50
2023-04-22T23:31:47.625Z,10.18
2023-04-22T23:34:15.781Z,9.80
2023-04-22T23:36:43.681Z,10.73
2023-04-22T23:39:11.168Z,10.13
2023-04-22T23:41:38.564Z,10.57
2023-04-22T23:44:06.509Z,10.23
2023-04-22T23:46:33.937Z,11.45
2023-04-22T23:49:01.502Z,10.98
2023-04-22T23:51:29.790Z,10.93
2023-04-22T23:53:57.278Z,10.85
2023-04-22T23:56:24.799Z,11.43
2023-04-22T23:58:52.518Z,11.43
